Time;durP1;ratioP1;P1;durP2;ratioP2;P2;SDS_P1;SDS_P2;PMS_P1;PMS_P2;Temp;Humidity;BMP_temperature;BMP_pressure;BME280_temperature;BME280_humidity;BME280_pressure;Samples;Min_cycle;Max_cycle;Signal;HPM_P1;HPM_P2
2022/11/22 00:00:06;;;;;;;6.20;1.90;;;6.20;99.90;;;;;;5053217;28;20448;-57
2022/11/22 00:02:33;;;;;;;4.20;1.90;;;6.30;99.90;;;;;;5052882;28;20421;-57
2022/11/22 00:05:00;;;;;;;6.47;2.00;;;6.20;99.90;;;;;;5053349;28;20424;-57
2022/11/22 00:07:27;;;;;;;7.15;1.95;;;6.20;99.90;;;;;;5052819;28;20784;-55
2022/11/22 00:09:53;;;;;;;4.90;2.00;;;6.30;99.90;;;;;;5053324;28;20406;-57
2022/11/22 00:12:20;;;;;;;4.53;1.85;;;6.30;99.90;;;;;;5052901;28;20419;-56
2022/11/22 00:14:48;;;;;;;4.53;1.80;;;6.30;99.90;;;;;;5052918;28;20409;-57
2022/11/22 00:17:15;;;;;;;4.50;1.80;;;6.30;99.90;;;;;;5052508;28;20888;-54
2022/11/22 00:19:42;;;;;;;3.33;1.70;;;6.20;99.90;;;;;;5052762;28;20904;-56
2022/11/22 00:22:09;;;;;;;5.65;2.08;;;6.20;99.90;;;;;;5052926;28;20443;-57
2022/11/22 00:24:35;;;;;;;3.47;1.70;;;6.20;99.90;;;;;;5052580;28;20430;-57
2022/11/22 00:27:02;;;;;;;4.43;1.63;;;6.20;99.90;;;;;;5052593;28;20413;-56
2022/11/22 00:29:29;;;;;;;5.43;2.00;;;6.30;99.90;;;;;;5052914;28;20421;-56
2022/11/22 00:31:57;;;;;;;6.28;1.88;;;6.20;99.90;;;;;;5052745;28;20892;-56
2022/11/22 00:34:23;;;;;;;4.67;1.83;;;6.30;99.90;;;;;;5052452;28;20896;-55
2022/11/22 00:36:50;;;;;;;3.83;1.95;;;6.30;99.90;;;;;;5051971;28;20473;-55
2022/11/22 00:39:16;;;;;;;5.85;1.92;;;6.20;99.90;;;;;;5052651;28;20409;-56
2022/11/22 00:41:43;;;;;;;3.13;1.73;;;6.30;99.90;;;;;;5052384;28;20425;-56
2022/11/22 00:44:10;;;;;;;4.73;1.90;;;6.30;99.90;;;;;;5052339;28;20421;-55
2022/11/22 00:46:36;;;;;;;4.30;1.73;;;6.20;99.90;;;;;;5052044;28;20459;-56
2022/11/22 00:49:05;;;;;;;5.18;1.80;;;6.10;99.90;;;;;;5052346;28;20409;-54
2022/11/22 00:51:31;;;;;;;5.55;2.20;;;6.10;99.90;;;;;;5052244;28;20753;-57
2022/11/22 00:53:58;;;;;;;3.85;1.80;;;6.10;99.90;;;;;;5051881;28;20409;-53
2022/11/22 00:56:25;;;;;;;6.40;1.80;;;6.10;99.90;;;;;;5051856;28;20447;-55
2022/11/22 00:58:51;;;;;;;3.95;1.70;;;6.20;99.90;;;;;;5051939;28;20471;-57
2022/11/22 01:01:18;;;;;;;4.50;2.00;;;6.20;99.90;;;;;;5052008;28;20792;-55
2022/11/22 01:03:45;;;;;;;4.22;1.70;;;6.20;99.90;;;;;;5051143;28;20483;-55
2022/11/22 01:06:13;;;;;;;4.53;1.90;;;6.20;99.90;;;;;;5051372;28;20421;-57
2022/11/22 01:08:39;;;;;;;4.25;1.85;;;6.20;99.90;;;;;;5051901;28;20482;-56
2022/11/22 01:11:06;;;;;;;4.13;1.92;;;6.20;99.90;;;;;;5052388;28;20413;-56
2022/11/22 01:13:34;;;;;;;4.95;2.22;;;6.30;99.90;;;;;;5051719;28;20413;-54
2022/11/22 01:16:01;;;;;;;3.08;1.67;;;6.20;99.90;;;;;;5051574;28;20413;-55
2022/11/22 01:18:28;;;;;;;3.90;1.93;;;6.30;99.90;;;;;;5051703;28;20440;-58
2022/11/22 01:20:54;;;;;;;4.45;2.10;;;6.30;99.90;;;;;;5051106;28;20425;-53
2022/11/22 01:23:22;;;;;;;5.47;1.90;;;6.20;99.90;;;;;;5051644;28;20421;-56
2022/11/22 01:25:49;;;;;;;3.88;2.10;;;6.30;99.90;;;;;;5051388;28;20421;-56
2022/11/22 01:28:17;;;;;;;3.70;1.77;;;6.30;99.90;;;;;;5051455;28;20409;-61
2022/11/22 01:30:44;;;;;;;4.05;1.92;;;6.30;99.90;;;;;;5051457;28;20896;-59
2022/11/22 01:33:11;;;;;;;5.20;2.30;;;6.30;99.90;;;;;;5051510;28;20413;-59
2022/11/22 01:35:37;;;;;;;4.70;2.03;;;6.20;99.90;;;;;;5051498;28;20491;-50
2022/11/22 01:38:04;;;;;;;3.45;1.90;;;6.20;99.90;;;;;;5051309;28;20424;-56
2022/11/22 01:40:32;;;;;;;6.97;2.30;;;6.20;99.90;;;;;;5051166;28;20472;-52
2022/11/22 01:43:00;;;;;;;4.55;1.90;;;6.10;99.90;;;;;;5051227;28;20421;-53
2022/11/22 01:45:41;;;;;;;3.30;2.10;;;6.20;99.90;;;;;;5051408;28;20409;-52
2022/11/22 01:48:35;;;;;;;4.00;2.10;;;6.20;99.90;;;;;;5051025;28;20467;-52
2022/11/22 01:51:06;;;;;;;6.30;2.13;;;6.20;99.90;;;;;;5051064;28;20773;-56
2022/11/22 01:53:37;;;;;;;5.43;2.07;;;6.20;99.90;;;;;;5051103;28;20419;-53
2022/11/22 01:56:09;;;;;;;4.75;2.20;;;6.20;99.90;;;;;;5043534;28;20463;-56
2022/11/22 01:58:39;;;;;;;4.40;2.20;;;6.30;99.90;;;;;;5051025;28;20419;-51
2022/11/22 02:01:07;;;;;;;4.90;2.20;;;6.30;99.90;;;;;;5050963;28;20483;-57
2022/11/22 02:03:36;;;;;;;4.95;2.30;;;6.30;99.90;;;;;;5050652;28;21250;-56
2022/11/22 02:06:04;;;;;;;6.38;2.60;;;6.30;99.90;;;;;;5050873;28;20421;-59
2022/11/22 02:08:36;;;;;;;5.47;2.38;;;6.30;99.90;;;;;;5050957;28;20421;-59
2022/11/22 02:11:04;;;;;;;5.15;2.22;;;6.30;99.90;;;;;;5050812;28;20880;-59
2022/11/22 02:13:36;;;;;;;5.10;2.25;;;6.40;99.90;;;;;;5050576;28;20896;-57
2022/11/22 02:16:03;;;;;;;5.35;2.33;;;6.40;99.90;;;;;;5050480;28;20471;-59
2022/11/22 02:18:30;;;;;;;5.07;2.60;;;6.40;99.90;;;;;;5050951;28;20417;-55
2022/11/22 02:20:58;;;;;;;5.28;2.40;;;6.30;99.90;;;;;;5050732;28;20459;-56
2022/11/22 02:23:34;;;;;;;6.85;2.60;;;6.40;99.90;;;;;;5050566;28;20417;-54
2022/11/22 02:26:03;;;;;;;5.30;2.47;;;6.40;99.90;;;;;;5042591;28;20409;-58
2022/11/22 02:28:31;;;;;;;4.85;2.38;;;6.40;99.90;;;;;;5050489;28;20417;-55
2022/11/22 02:30:58;;;;;;;5.45;2.00;;;6.40;99.90;;;;;;5050437;28;20884;-56
2022/11/22 02:33:25;;;;;;;5.00;2.30;;;6.50;99.90;;;;;;5050602;28;20414;-58
2022/11/22 02:35:52;;;;;;;6.30;2.60;;;6.50;99.90;;;;;;5050532;28;20827;-57
2022/11/22 02:38:23;;;;;;;5.32;2.40;;;6.40;99.90;;;;;;5050868;28;20479;-54
2022/11/22 02:40:54;;;;;;;7.07;2.58;;;6.50;99.90;;;;;;5050272;28;20947;-55
2022/11/22 02:43:25;;;;;;;7.97;2.50;;;6.40;99.90;;;;;;5050579;28;20417;-56
2022/11/22 02:45:52;;;;;;;9.32;3.00;;;6.50;99.90;;;;;;5050404;28;20418;-54
2022/11/22 02:48:19;;;;;;;9.85;3.00;;;6.50;99.90;;;;;;5050569;28;20511;-54
2022/11/22 02:50:45;;;;;;;6.53;2.25;;;6.50;99.90;;;;;;5050313;28;20417;-55
2022/11/22 02:53:13;;;;;;;9.25;2.70;;;6.60;99.90;;;;;;5050220;28;20427;-55
2022/11/22 02:55:40;;;;;;;7.67;2.60;;;6.60;99.90;;;;;;5050050;28;20444;-58
2022/11/22 02:58:07;;;;;;;8.63;2.50;;;6.50;99.90;;;;;;5050329;28;20463;-57
2022/11/22 03:00:37;;;;;;;6.13;2.17;;;6.50;99.90;;;;;;5050275;28;20425;-58
2022/11/22 03:03:04;;;;;;;6.53;2.38;;;6.40;99.90;;;;;;5050384;28;20421;-56
2022/11/22 03:05:31;;;;;;;8.70;2.30;;;6.50;99.90;;;;;;5050255;28;20914;-53
2022/11/22 03:07:57;;;;;;;8.02;2.42;;;6.50;99.90;;;;;;5049946;28;20417;-56
2022/11/22 03:10:24;;;;;;;8.88;2.88;;;6.40;99.90;;;;;;5050368;28;20422;-57
2022/11/22 03:12:51;;;;;;;7.53;2.50;;;6.50;99.90;;;;;;5050364;28;20420;-58
2022/11/22 03:15:18;;;;;;;9.82;2.38;;;6.50;99.90;;;;;;5050348;28;20417;-55
2022/11/22 03:17:45;;;;;;;7.82;2.05;;;6.60;99.90;;;;;;5050102;28;20911;-59
2022/11/22 03:20:13;;;;;;;7.53;2.42;;;6.60;99.90;;;;;;5049908;28;20950;-55
2022/11/22 03:22:39;;;;;;;7.93;2.20;;;6.70;99.90;;;;;;5049986;28;20413;-59
2022/11/22 03:25:06;;;;;;;10.68;2.60;;;6.70;99.90;;;;;;5050148;28;20827;-57
2022/11/22 03:27:33;;;;;;;8.23;2.58;;;6.70;99.90;;;;;;5053215;28;20413;-57
2022/11/22 03:30:00;;;;;;;7.07;2.30;;;6.70;99.90;;;;;;5053741;28;20413;-55
2022/11/22 03:32:26;;;;;;;9.02;2.33;;;6.70;99.90;;;;;;5053850;28;20405;-56
2022/11/22 03:34:54;;;;;;;7.47;2.50;;;6.70;99.90;;;;;;5053476;28;20409;-59
2022/11/22 03:37:21;;;;;;;10.30;2.78;;;6.60;99.90;;;;;;5053601;28;20474;-57
2022/11/22 03:39:48;;;;;;;10.63;2.60;;;6.60;99.90;;;;;;5053739;28;20481;-59
2022/11/22 03:42:15;;;;;;;8.93;2.50;;;6.60;99.90;;;;;;5053565;28;20429;-55
2022/11/22 03:44:41;;;;;;;8.93;2.92;;;6.60;99.90;;;;;;5053435;28;20799;-57
2022/11/22 03:47:08;;;;;;;10.25;2.92;;;6.60;99.90;;;;;;5053285;28;20486;-55
2022/11/22 03:49:35;;;;;;;6.43;2.53;;;6.60;99.90;;;;;;5053501;28;20424;-57
2022/11/22 03:52:03;;;;;;;10.70;2.85;;;6.50;99.90;;;;;;5053142;28;20412;-57
2022/11/22 03:54:30;;;;;;;9.02;2.92;;;6.50;99.90;;;;;;5053459;28;20474;-55
2022/11/22 03:56:56;;;;;;;6.93;2.38;;;6.40;99.90;;;;;;5053083;28;20471;-57
2022/11/22 03:59:23;;;;;;;13.27;3.00;;;6.40;99.90;;;;;;5053270;28;20500;-57
2022/11/22 04:01:50;;;;;;;9.23;2.58;;;6.30;99.90;;;;;;5053149;28;20425;-57
2022/11/22 04:04:17;;;;;;;8.37;2.70;;;6.30;99.90;;;;;;5053199;28;20819;-57
2022/11/22 04:06:43;;;;;;;11.73;2.67;;;6.20;99.90;;;;;;5052978;28;20424;-58
2022/11/22 04:09:11;;;;;;;8.98;2.40;;;6.20;99.90;;;;;;5053304;28;20409;-59
2022/11/22 04:11:38;;;;;;;10.02;2.80;;;6.10;99.90;;;;;;5053130;28;20410;-59
2022/11/22 04:16:49;;;;;;;8.68;2.63;;;6.20;99.90;;;;;;5052521;28;20405;-57
2022/11/22 04:19:16;;;;;;;10.68;2.50;;;6.10;99.90;;;;;;5053255;28;20421;-56
2022/11/22 04:21:41;;;;;;;7.15;2.50;;;6.10;99.90;;;;;;5052712;28;20475;-57
2022/11/22 04:26:56;;;;;;;7.88;2.60;;;6.00;99.90;;;;;;5052526;28;21022;-57
2022/11/22 04:29:23;;;;;;;7.35;2.40;;;5.90;99.90;;;;;;5052514;28;20467;-57
2022/11/22 04:34:35;;;;;;;9.23;2.60;;;6.00;99.90;;;;;;5052641;28;20400;-55
2022/11/22 04:37:03;;;;;;;10.38;2.58;;;6.00;99.90;;;;;;5051577;28;20463;-57
2022/11/22 04:39:31;;;;;;;10.43;2.30;;;6.00;99.90;;;;;;5051903;28;20467;-58
2022/11/22 04:44:43;;;;;;;9.80;3.00;;;5.90;99.90;;;;;;5052387;28;20397;-53
2022/11/22 04:47:10;;;;;;;10.45;2.70;;;5.90;99.90;;;;;;5052128;28;20483;-57
2022/11/22 04:49:37;;;;;;;11.88;2.40;;;5.80;99.90;;;;;;5052598;28;20413;-57
2022/11/22 04:54:50;;;;;;;10.65;2.40;;;5.90;99.90;;;;;;5052043;28;20409;-57
2022/11/22 04:57:17;;;;;;;10.00;2.45;;;5.80;99.90;;;;;;5051982;28;20413;-58
2022/11/22 04:59:43;;;;;;;7.53;2.33;;;5.80;99.90;;;;;;5052278;28;20409;-57
2022/11/22 05:02:10;;;;;;;10.25;2.53;;;5.80;99.90;;;;;;5052064;28;20429;-55
2022/11/22 05:04:36;;;;;;;10.98;2.40;;;5.70;99.90;;;;;;5051968;28;20417;-57
2022/11/22 05:07:03;;;;;;;12.02;2.63;;;5.70;99.90;;;;;;5051844;28;20451;-57
2022/11/22 05:09:30;;;;;;;12.82;2.75;;;5.70;99.90;;;;;;5051902;28;20867;-54
2022/11/22 05:11:58;;;;;;;14.32;2.90;;;5.70;99.90;;;;;;5052026;28;20463;-56
2022/11/22 05:14:25;;;;;;;15.87;2.77;;;5.60;99.90;;;;;;5051662;28;20417;-57
2022/11/22 05:16:51;;;;;;;14.05;2.28;;;5.60;99.90;;;;;;5051589;28;20421;-56
2022/11/22 05:19:18;;;;;;;11.32;2.40;;;5.70;99.90;;;;;;5051545;28;20417;-53
2022/11/22 05:21:44;;;;;;;11.15;2.47;;;5.60;99.90;;;;;;5051555;28;20904;-57
2022/11/22 05:24:10;;;;;;;11.52;2.60;;;5.70;99.90;;;;;;5051807;28;20417;-51
2022/11/22 05:26:37;;;;;;;9.88;2.05;;;5.60;99.90;;;;;;5051663;28;20410;-53
2022/11/22 05:29:07;;;;;;;11.63;2.95;;;5.60;99.90;;;;;;5051632;28;20413;-58
2022/11/22 05:31:35;;;;;;;10.10;2.45;;;5.50;99.90;;;;;;5052404;28;20409;-57
2022/11/22 05:34:02;;;;;;;13.50;2.67;;;5.50;99.90;;;;;;5052147;28;20413;-55
2022/11/22 05:36:31;;;;;;;10.88;2.63;;;5.50;99.90;;;;;;5052013;28;20413;-57
2022/11/22 05:38:58;;;;;;;12.25;2.45;;;5.50;99.90;;;;;;5051562;28;20496;-56
2022/11/22 05:41:25;;;;;;;17.00;2.80;;;5.60;99.90;;;;;;5051477;28;20483;-55
2022/11/22 05:43:53;;;;;;;9.60;2.58;;;5.50;99.90;;;;;;5051191;28;20823;-54
2022/11/22 05:46:23;;;;;;;10.00;2.28;;;5.60;99.90;;;;;;5050817;28;20451;-53
2022/11/22 05:48:50;;;;;;;12.63;2.53;;;5.50;99.90;;;;;;5051015;28;20475;-52
2022/11/22 05:51:18;;;;;;;10.65;2.25;;;5.50;99.90;;;;;;5051016;28;20409;-55
2022/11/22 05:53:45;;;;;;;12.43;2.25;;;5.40;99.90;;;;;;5050749;28;20893;-54
2022/11/22 05:56:14;;;;;;;12.63;2.97;;;5.40;99.90;;;;;;5051039;28;21525;-54
2022/11/22 05:58:41;;;;;;;17.53;3.70;;;5.30;99.90;;;;;;5050916;28;20416;-55
2022/11/22 06:01:09;;;;;;;11.52;2.88;;;5.30;99.90;;;;;;5051093;28;20918;-52
2022/11/22 06:03:37;;;;;;;12.90;2.75;;;5.30;99.90;;;;;;5050855;28;20421;-49
2022/11/22 06:06:05;;;;;;;12.20;2.38;;;5.30;99.90;;;;;;5050854;28;20424;-54
2022/11/22 06:08:34;;;;;;;12.10;2.53;;;5.30;99.90;;;;;;5050861;28;20416;-55
2022/11/22 06:11:05;;;;;;;9.03;2.47;;;5.20;99.90;;;;;;5051070;28;20459;-57
2022/11/22 06:13:34;;;;;;;10.68;2.20;;;5.20;99.90;;;;;;5050449;28;20788;-56
2022/11/22 06:16:00;;;;;;;11.57;2.35;;;5.30;99.90;;;;;;5051024;28;20496;-57
2022/11/22 06:18:27;;;;;;;13.93;2.83;;;5.20;99.90;;;;;;5050747;28;20421;-58
2022/11/22 06:20:58;;;;;;;12.18;2.65;;;5.20;99.90;;;;;;5050680;28;20425;-57
2022/11/22 06:23:25;;;;;;;13.50;2.73;;;5.10;99.90;;;;;;5050432;28;20425;-58
2022/11/22 06:25:56;;;;;;;12.50;2.33;;;5.20;99.90;;;;;;5050352;28;20417;-57
2022/11/22 06:28:23;;;;;;;14.23;2.60;;;5.10;99.90;;;;;;5050822;28;20510;-58
2022/11/22 06:30:50;;;;;;;12.15;2.35;;;5.10;99.90;;;;;;5050674;28;20467;-55
2022/11/22 06:33:16;;;;;;;10.98;2.30;;;5.10;99.90;;;;;;5050654;28;20942;-55
2022/11/22 06:35:43;;;;;;;13.95;2.63;;;5.10;99.90;;;;;;5050416;28;20807;-57
2022/11/22 06:38:11;;;;;;;9.88;2.35;;;5.00;99.90;;;;;;5050312;28;20460;-53
2022/11/22 06:40:38;;;;;;;12.17;2.60;;;5.00;99.90;;;;;;5050255;28;20853;-55
2022/11/22 06:43:04;;;;;;;12.48;2.28;;;5.10;99.90;;;;;;5050480;28;20463;-57
2022/11/22 06:45:31;;;;;;;15.38;3.05;;;5.10;99.90;;;;;;5050535;28;20475;-55
2022/11/22 06:47:58;;;;;;;13.60;2.50;;;5.20;99.90;;;;;;5050286;28;20417;-56
2022/11/22 06:50:25;;;;;;;11.38;2.42;;;5.20;99.90;;;;;;5050317;28;20497;-57
2022/11/22 06:52:51;;;;;;;11.93;2.63;;;5.20;99.90;;;;;;5050146;28;20475;-58
2022/11/22 06:55:19;;;;;;;11.07;2.58;;;5.20;99.90;;;;;;5050278;28;20432;-59
2022/11/22 06:57:49;;;;;;;11.90;2.80;;;5.10;99.90;;;;;;5050337;28;20487;-56
2022/11/22 07:00:17;;;;;;;10.20;2.40;;;5.10;99.90;;;;;;5050480;28;20425;-59
2022/11/22 07:02:43;;;;;;;13.38;2.50;;;5.10;99.90;;;;;;5054051;28;20795;-58
2022/11/22 07:05:10;;;;;;;8.25;2.28;;;5.10;99.90;;;;;;5054248;28;20405;-58
2022/11/22 07:07:37;;;;;;;13.50;2.90;;;5.20;99.90;;;;;;5054174;28;20445;-57
2022/11/22 07:10:04;;;;;;;12.40;2.67;;;5.20;99.90;;;;;;5054517;28;20416;-58
2022/11/22 07:12:32;;;;;;;12.18;3.15;;;5.20;99.90;;;;;;5054387;28;20414;-55
2022/11/22 07:14:59;;;;;;;11.23;2.28;;;5.20;99.90;;;;;;5054188;28;20421;-55
2022/11/22 07:17:26;;;;;;;11.82;2.92;;;5.20;99.90;;;;;;5054277;28;20417;-56
2022/11/22 07:19:52;;;;;;;11.27;3.35;;;5.30;99.90;;;;;;5054102;28;20784;-58
2022/11/22 07:22:19;;;;;;;9.18;2.47;;;5.20;99.90;;;;;;5053917;28;20478;-54
2022/11/22 07:24:46;;;;;;;11.10;2.70;;;5.20;99.90;;;;;;5053892;28;20479;-57
2022/11/22 07:27:12;;;;;;;13.40;2.78;;;5.20;99.90;;;;;;5053766;28;20467;-57
2022/11/22 07:29:40;;;;;;;10.80;2.87;;;5.20;99.90;;;;;;5053880;28;20917;-52
2022/11/22 07:32:07;;;;;;;13.75;3.42;;;5.20;99.90;;;;;;5053764;28;20413;-57
2022/11/22 07:34:33;;;;;;;10.50;2.22;;;5.20;99.90;;;;;;5053516;28;20413;-54
2022/11/22 07:37:00;;;;;;;15.02;3.10;;;5.30;99.90;;;;;;5053341;28;20409;-54
2022/11/22 07:39:27;;;;;;;14.05;3.47;;;5.30;99.90;;;;;;5053277;28;20892;-59
2022/11/22 07:41:54;;;;;;;14.95;2.67;;;5.40;99.90;;;;;;5053346;28;20479;-57
2022/11/22 07:44:21;;;;;;;12.38;2.47;;;5.50;99.90;;;;;;5053551;28;20471;-58
2022/11/22 07:46:49;;;;;;;9.07;2.30;;;5.40;99.90;;;;;;5053203;28;20865;-55
2022/11/22 07:49:16;;;;;;;15.38;2.70;;;5.40;98.40;;;;;;5053425;28;20784;-58
2022/11/22 07:51:42;;;;;;;9.02;2.20;;;5.50;98.10;;;;;;5053242;28;21078;-54
2022/11/22 07:54:11;;;;;;;9.07;2.22;;;5.50;93.50;;;;;;5053307;28;20448;-57
2022/11/22 07:56:38;;;;;;;12.75;2.47;;;5.40;94.00;;;;;;5052942;28;20965;-51
2022/11/22 07:59:05;;;;;;;8.85;2.42;;;5.50;93.50;;;;;;5053331;28;20797;-55
2022/11/22 08:01:31;;;;;;;8.75;2.22;;;5.50;84.70;;;;;;5052914;28;20417;-54
2022/11/22 08:03:59;;;;;;;11.02;2.60;;;5.60;74.70;;;;;;5052985;28;20428;-57
2022/11/22 08:06:26;;;;;;;8.60;2.20;;;5.70;58.90;;;;;;5052932;28;20459;-57
2022/11/22 08:08:53;;;;;;;9.47;2.23;;;5.70;59.20;;;;;;5053304;28;20413;-55
2022/11/22 08:11:19;;;;;;;10.63;2.45;;;5.80;54.30;;;;;;5053022;28;20773;-57
2022/11/22 08:13:46;;;;;;;11.30;2.30;;;5.70;50.70;;;;;;5052757;28;20410;-57
2022/11/22 08:16:15;;;;;;;6.80;1.95;;;5.70;56.20;;;;;;5052461;28;20428;-54
2022/11/22 08:18:45;;;;;;;10.98;2.33;;;5.70;57.00;;;;;;5053048;28;20409;-58
2022/11/22 08:21:14;;;;;;;7.40;1.95;;;5.80;49.60;;;;;;5052776;28;20424;-55
2022/11/22 08:23:42;;;;;;;10.25;2.20;;;5.80;52.60;;;;;;5052275;28;20429;-57
2022/11/22 08:26:12;;;;;;;7.78;1.80;;;5.80;52.50;;;;;;5052628;28;20413;-54
2022/11/22 08:28:39;;;;;;;11.07;2.38;;;5.90;43.40;;;;;;5052506;28;20413;-56
2022/11/22 08:31:09;;;;;;;7.28;2.00;;;6.00;34.90;;;;;;5052726;28;20421;-57
2022/11/22 08:33:36;;;;;;;8.20;2.00;;;6.10;28.20;;;;;;5052666;28;20413;-57
2022/11/22 08:36:03;;;;;;;8.32;1.83;;;6.20;20.40;;;;;;5052266;28;20471;-55
2022/11/22 08:38:31;;;;;;;6.47;2.00;;;6.20;14.40;;;;;;5052524;28;20413;-55
2022/11/22 08:40:58;;;;;;;11.82;1.80;;;6.40;1.00;;;;;;5052775;28;20413;-56
2022/11/22 08:43:25;;;;;;;9.68;2.30;;;6.40;1.00;;;;;;5052227;28;20436;-59
2022/11/22 08:45:54;;;;;;;9.95;2.10;;;6.40;1.00;;;;;;5052647;28;20421;-57
2022/11/22 08:48:21;;;;;;;7.25;2.20;;;6.50;1.00;;;;;;5052321;28;20444;-57
2022/11/22 08:50:50;;;;;;;8.07;2.22;;;6.60;1.00;;;;;;5052135;28;20425;-58
2022/11/22 08:53:17;;;;;;;8.47;1.90;;;6.70;1.00;;;;;;5051419;28;20409;-55
2022/11/22 08:55:45;;;;;;;8.25;2.00;;;6.70;1.00;;;;;;5052013;28;20428;-57
2022/11/22 08:58:11;;;;;;;9.48;1.83;;;6.80;1.00;;;;;;5051647;28;20428;-55
2022/11/22 09:00:38;;;;;;;8.68;1.95;;;6.80;1.00;;;;;;5052139;28;20520;-55
2022/11/22 09:03:05;;;;;;;9.18;1.85;;;6.80;1.00;;;;;;5051583;28;20425;-57
2022/11/22 09:05:31;;;;;;;10.55;2.05;;;6.90;1.00;;;;;;5052198;28;20417;-57
2022/11/22 09:07:58;;;;;;;9.20;2.08;;;6.90;1.00;;;;;;5051723;28;20413;-57
2022/11/22 09:10:25;;;;;;;5.85;1.70;;;7.00;1.00;;;;;;5051874;28;20409;-59
2022/11/22 09:12:53;;;;;;;8.15;1.90;;;7.10;1.00;;;;;;5051974;28;20959;-57
2022/11/22 09:15:20;;;;;;;7.88;1.55;;;7.20;1.00;;;;;;5052018;28;20800;-54
2022/11/22 09:17:47;;;;;;;9.73;1.65;;;7.20;1.00;;;;;;5051668;28;20475;-57
2022/11/22 09:20:14;;;;;;;9.43;1.98;;;7.20;1.00;;;;;;5051875;28;20409;-54
2022/11/22 09:22:41;;;;;;;7.55;1.90;;;7.20;1.00;;;;;;5051411;28;20950;-55
2022/11/22 09:25:08;;;;;;;6.82;2.00;;;7.40;1.00;;;;;;5050709;28;20417;-58
2022/11/22 09:27:35;;;;;;;8.80;1.73;;;7.30;1.00;;;;;;5051709;28;20413;-58
2022/11/22 09:30:04;;;;;;;8.20;1.63;;;7.40;1.00;;;;;;5051600;28;20409;-55
2022/11/22 09:32:30;;;;;;;10.00;2.10;;;7.50;1.00;;;;;;5051764;28;20417;-56
2022/11/22 09:34:57;;;;;;;7.47;1.43;;;7.60;1.00;;;;;;5051004;28;20457;-56
2022/11/22 09:37:24;;;;;;;8.13;1.65;;;7.60;1.00;;;;;;5051324;28;20413;-55
2022/11/22 09:39:50;;;;;;;7.07;1.52;;;7.60;1.00;;;;;;5051704;28;20433;-59
2022/11/22 09:42:35;;;;;;;5.32;1.63;;;7.50;99.90;;;;;;5051691;28;20413;-56
2022/11/22 09:45:21;;;;;;;7.05;1.70;;;7.40;1.00;;;;;;5051231;28;20413;-54
2022/11/22 09:47:55;;;;;;;7.45;1.63;;;7.50;1.00;;;;;;5050812;28;20885;-55
2022/11/22 09:50:30;;;;;;;6.00;2.08;;;7.60;1.00;;;;;;5051071;28;20417;-55
2022/11/22 09:53:02;;;;;;;6.05;1.67;;;7.80;1.00;;;;;;5051194;28;20410;-52
2022/11/22 09:55:35;;;;;;;6.47;1.90;;;7.90;99.90;;;;;;5051132;28;20475;-49
2022/11/22 09:58:10;;;;;;;6.10;1.80;;;8.00;99.90;;;;;;5051009;28;20421;-58
2022/11/22 10:00:41;;;;;;;6.77;1.50;;;8.10;99.90;;;;;;5051041;28;20456;-56
2022/11/22 10:03:17;;;;;;;5.95;1.27;;;8.00;99.90;;;;;;5051167;28;20769;-56
2022/11/22 10:05:49;;;;;;;4.07;1.20;;;8.00;99.90;;;;;;5050923;28;20417;-52
2022/11/22 10:08:27;;;;;;;4.68;1.30;;;7.80;99.90;;;;;;5050913;28;20413;-59
2022/11/22 10:10:57;;;;;;;5.50;1.45;;;7.70;99.90;;;;;;5050699;28;20907;-53
2022/11/22 10:13:31;;;;;;;8.57;1.90;;;7.60;99.90;;;;;;5051053;28;20483;-56
2022/11/22 10:16:03;;;;;;;8.43;2.00;;;7.70;99.90;;;;;;5050830;28;20562;-55
2022/11/22 10:18:38;;;;;;;5.47;1.27;;;7.70;99.90;;;;;;5052164;28;20260;-57
2022/11/22 10:21:07;;;;;;;5.00;1.60;;;7.60;99.90;;;;;;5051778;28;20212;-55
2022/11/22 10:23:34;;;;;;;3.67;1.00;;;7.50;1.00;;;;;;5051569;28;20229;-58
2022/11/22 10:26:10;;;;;;;6.70;1.80;;;7.50;1.00;;;;;;5051713;28;20197;-57
2022/11/22 10:28:41;;;;;;;;;;;7.50;1.00;;;;;;5052412;28;20106;-59
2022/11/22 10:31:11;;;;;;;;;;;7.50;1.00;;;;;;5052569;28;19924;-59
2022/11/22 10:33:39;;;;;;;;;;;7.50;1.00;;;;;;5052310;28;19921;-57
2022/11/22 10:36:17;;;;;;;;;;;7.40;1.00;;;;;;5051528;28;19970;-56
2022/11/22 10:39:09;;;;;;;5.95;1.65;;;7.30;1.00;;;;;;5050828;28;20472;-57
2022/11/22 10:41:50;;;;;;;5.85;1.83;;;7.30;1.00;;;;;;5050675;28;20455;-58
2022/11/22 10:44:27;;;;;;;6.47;1.90;;;7.40;1.00;;;;;;5050550;28;20436;-58
2022/11/22 10:47:05;;;;;;;7.93;1.85;;;7.40;1.00;;;;;;5050401;28;20466;-57
2022/11/22 10:49:45;;;;;;;5.85;2.42;;;7.50;1.00;;;;;;5050577;28;20432;-57
2022/11/22 10:52:22;;;;;;;5.20;1.55;;;7.50;1.00;;;;;;5050429;28;20416;-59
2022/11/22 10:54:56;;;;;;;6.20;1.88;;;7.50;1.00;;;;;;5049911;28;20418;-55
2022/11/22 10:57:31;;;;;;;5.07;1.55;;;7.70;1.00;;;;;;5050342;28;20417;-57
2022/11/22 11:00:13;;;;;;;8.45;1.65;;;7.80;1.00;;;;;;5050373;28;20424;-58
2022/11/22 11:02:59;;;;;;;6.53;1.90;;;7.90;1.00;;;;;;5050569;28;20483;-56
2022/11/22 11:05:32;;;;;;;7.75;2.03;;;7.80;1.00;;;;;;5050578;28;20413;-57
2022/11/22 11:08:00;;;;;;;7.43;1.80;;;7.80;1.00;;;;;;5050461;28;20424;-57
2022/11/22 11:10:34;;;;;;;4.80;1.57;;;7.70;1.00;;;;;;5050542;28;20409;-57
2022/11/22 11:13:05;;;;;;;10.45;1.83;;;7.70;99.90;;;;;;5050272;28;20462;-54
2022/11/22 11:15:36;;;;;;;7.38;1.42;;;7.70;1.00;;;;;;5050178;28;20409;-57
2022/11/22 11:18:07;;;;;;;5.63;1.20;;;7.80;1.00;;;;;;5050336;28;20855;-57
2022/11/22 11:20:38;;;;;;;5.88;1.58;;;7.60;99.90;;;;;;5050598;28;20447;-56
2022/11/22 11:23:05;;;;;;;5.82;1.70;;;7.60;1.00;;;;;;5050243;28;20429;-53
2022/11/22 11:25:39;;;;;;;5.88;1.70;;;7.70;1.00;;;;;;5049948;28;20455;-57
2022/11/22 11:28:08;;;;;;;5.18;1.30;;;7.60;1.00;;;;;;5049774;28;20409;-58
2022/11/22 11:30:40;;;;;;;5.57;1.30;;;7.60;1.00;;;;;;5050093;28;20467;-60
2022/11/22 11:33:20;;;;;;;4.20;1.15;;;7.80;1.00;;;;;;5050280;28;20409;-57
2022/11/22 11:35:47;;;;;;;3.53;1.25;;;7.90;1.00;;;;;;5049959;28;20422;-59
2022/11/22 11:38:32;;;;;;;8.23;1.83;;;8.00;99.90;;;;;;5050067;28;20417;-56
2022/11/22 11:41:17;;;;;;;3.80;1.20;;;8.20;1.00;;;;;;5049793;28;20954;-57
2022/11/22 11:43:44;;;;;;;6.45;1.50;;;8.40;99.90;;;;;;5050196;28;20849;-58
2022/11/22 11:46:16;;;;;;;4.57;1.20;;;8.40;99.90;;;;;;5049638;28;20405;-58
2022/11/22 11:48:45;;;;;;;4.65;1.35;;;8.60;99.90;;;;;;5053203;28;20409;-54
2022/11/22 11:51:22;;;;;;;5.20;1.20;;;8.70;99.90;;;;;;5053351;28;21026;-56
2022/11/22 11:54:10;;;;;;;2.37;0.80;;;8.60;99.90;;;;;;5054345;28;20273;-58
2022/11/22 11:56:46;;;;;;;2.67;0.90;;;8.50;99.90;;;;;;5054410;28;20205;-58
2022/11/22 11:59:15;;;;;;;3.73;1.00;;;8.30;99.90;;;;;;5054423;28;20208;-55
2022/11/22 12:01:56;;;;;;;2.97;1.00;;;8.20;99.90;;;;;;5054653;28;20210;-58
2022/11/22 12:04:27;;;;;;;3.60;1.00;;;8.00;99.90;;;;;;5054690;28;20610;-56
2022/11/22 12:07:05;;;;;;;1.80;0.90;;;7.90;99.90;;;;;;5054119;28;20256;-56
2022/11/22 12:09:36;;;;;;;2.03;0.63;;;8.00;99.90;;;;;;5054384;28;20556;-58
2022/11/22 12:12:15;;;;;;;2.33;0.80;;;8.00;99.90;;;;;;5054171;28;20209;-59
2022/11/22 12:14:47;;;;;;;1.87;0.90;;;7.90;99.90;;;;;;5054377;28;20225;-59
2022/11/22 12:17:23;;;;;;;4.70;0.93;;;7.90;99.90;;;;;;5054032;28;20252;-59
2022/11/22 12:20:01;;;;;;;2.57;0.90;;;8.10;99.90;;;;;;5053961;28;20244;-57
2022/11/22 12:22:33;;;;;;;2.63;0.70;;;8.30;99.90;;;;;;5054016;28;20736;-57
2022/11/22 12:25:11;;;;;;;4.60;0.70;;;8.60;99.90;;;;;;5045863;28;20226;-58
2022/11/22 12:27:37;;;;;;;1.30;0.50;;;8.70;56.10;;;;;;5053973;28;20217;-58
2022/11/22 12:30:10;;;;;;;2.23;0.80;;;8.80;1.00;;;;;;5054028;28;20206;-57
2022/11/22 12:32:41;;;;;;;1.40;0.50;;;8.90;90.60;;;;;;5052376;28;20255;-61
2022/11/22 12:35:14;;;;;;;2.80;0.70;;;9.00;1.00;;;;;;5052426;28;20622;-55
2022/11/22 12:37:48;;;;;;;3.43;0.70;;;8.90;15.00;;;;;;5053170;28;20207;-57
2022/11/22 12:40:20;;;;;;;4.43;0.77;;;8.80;12.20;;;;;;5053069;28;20613;-51
2022/11/22 12:42:51;;;;;;;7.20;1.13;;;8.70;17.30;;;;;;5052984;28;20789;-56
2022/11/22 12:45:27;;;;;;;1.33;0.70;;;8.70;1.00;;;;;;5053634;28;20222;-60
2022/11/22 12:47:57;;;;;;;4.47;0.70;;;8.70;99.90;;;;;;5052711;28;20210;-58
2022/11/22 12:50:30;;;;;;;3.80;1.10;;;8.80;1.00;;;;;;5053176;28;20561;-59
2022/11/22 12:53:02;;;;;;;2.80;0.70;;;8.80;1.00;;;;;;5043304;28;20237;-62
2022/11/22 12:55:34;;;;;;;1.10;0.67;;;8.80;1.00;;;;;;5051283;28;20197;-62
2022/11/22 12:58:14;;;;;;;1.47;0.73;;;8.80;1.00;;;;;;5031999;28;20264;-64
2022/11/22 13:01:00;;;;;;;1.03;0.63;;;9.00;1.00;;;;;;5032228;28;20210;-62
2022/11/22 13:03:31;;;;;;;3.37;0.70;;;9.20;1.00;;;;;;5032638;28;20231;-65
2022/11/22 13:06:03;;;;;;;4.53;1.00;;;9.30;99.90;;;;;;5050283;28;20200;-63
2022/11/22 13:08:36;;;;;;;2.37;1.00;;;9.30;90.20;;;;;;5052199;28;20202;-65
2022/11/22 13:11:11;;;;;;;3.87;0.80;;;9.10;1.00;;;;;;5032306;28;20264;-64
2022/11/22 13:13:41;;;;;;;3.20;0.70;;;9.00;1.00;;;;;;5032186;28;20756;-63
2022/11/22 13:16:10;;;;;;;3.03;1.03;;;8.90;1.00;;;;;;5036299;28;20207;-63
2022/11/22 13:18:40;;;;;;;3.63;0.90;;;8.90;1.00;;;;;;5052072;28;20206;-63
2022/11/22 13:21:15;;;;;;;2.03;0.73;;;8.80;1.00;;;;;;5052292;28;20209;-63